sensor_id;sensor_type;location;lat;lon;timestamp;temperature;humidity
12268;DHT22;6196;48.398;11.736;2023-04-06T00:00:54;-1.00;99.90
12268;DHT22;6196;48.398;11.736;2023-04-06T00:03:21;-1.00;99.90
12268;DHT22;6196;48.398;11.736;2023-04-06T00:05:48;-1.00;99.90
12268;DHT22;6196;48.398;11.736;2023-04-06T00:08:15;-1.00;99.90
12268;DHT22;6196;48.398;11.736;2023-04-06T00:10:42;-1.00;99.90
12268;DHT22;6196;48.398;11.736;2023-04-06T00:13:09;-1.00;99.90
12268;DHT22;6196;48.398;11.736;2023-04-06T00:15:36;-1.00;99.90
12268;DHT22;6196;48.398;11.736;2023-04-06T00:18:03;-1.00;99.90
12268;DHT22;6196;48.398;11.736;2023-04-06T00:20:30;-1.00;99.90
12268;DHT22;6196;48.398;11.736;2023-04-06T00:22:57;-1.10;99.90
12268;DHT22;6196;48.398;11.736;2023-04-06T00:25:24;-1.10;99.90
12268;DHT22;6196;48.398;11.736;2023-04-06T00:27:51;-1.10;99.90
12268;DHT22;6196;48.398;11.736;2023-04-06T00:30:18;-1.10;99.90
12268;DHT22;6196;48.398;11.736;2023-04-06T00:32:45;-1.20;99.90
12268;DHT22;6196;48.398;11.736;2023-04-06T00:35:12;-1.10;99.90
12268;DHT22;6196;48.398;11.736;2023-04-06T00:37:38;-1.10;99.90
12268;DHT22;6196;48.398;11.736;2023-04-06T00:40:06;-1.10;99.90
12268;DHT22;6196;48.398;11.736;2023-04-06T00:42:33;-1.10;99.90
12268;DHT22;6196;48.398;11.736;2023-04-06T00:45:01;-1.10;99.90
12268;DHT22;6196;48.398;11.736;2023-04-06T00:47:28;-1.10;99.90
12268;DHT22;6196;48.398;11.736;2023-04-06T00:49:56;-1.10;99.90
12268;DHT22;6196;48.398;11.736;2023-04-06T00:52:23;-1.20;99.90
12268;DHT22;6196;48.398;11.736;2023-04-06T00:54:50;-1.20;99.90
12268;DHT22;6196;48.398;11.736;2023-04-06T00:57:17;-1.20;99.90
12268;DHT22;6196;48.398;11.736;2023-04-06T00:59:45;-1.20;99.90
12268;DHT22;6196;48.398;11.736;2023-04-06T01:02:12;-1.30;99.90
12268;DHT22;6196;48.398;11.736;2023-04-06T01:04:39;-1.30;99.90
12268;DHT22;6196;48.398;11.736;2023-04-06T01:07:06;-1.40;99.90
12268;DHT22;6196;48.398;11.736;2023-04-06T01:09:33;-1.40;99.90
12268;DHT22;6196;48.398;11.736;2023-04-06T01:12:00;-1.50;99.90
12268;DHT22;6196;48.398;11.736;2023-04-06T01:14:27;-1.50;99.90
12268;DHT22;6196;48.398;11.736;2023-04-06T01:16:57;-1.60;99.90
12268;DHT22;6196;48.398;11.736;2023-04-06T01:19:24;-1.50;99.90
12268;DHT22;6196;48.398;11.736;2023-04-06T01:21:52;-1.50;99.90
12268;DHT22;6196;48.398;11.736;2023-04-06T01:24:20;-1.50;99.90
12268;DHT22;6196;48.398;11.736;2023-04-06T01:26:47;-1.50;99.90
12268;DHT22;6196;48.398;11.736;2023-04-06T01:29:14;-1.60;99.90
12268;DHT22;6196;48.398;11.736;2023-04-06T01:31:41;-1.60;99.90
12268;DHT22;6196;48.398;11.736;2023-04-06T01:34:08;-1.60;99.90
12268;DHT22;6196;48.398;11.736;2023-04-06T01:36:35;-1.70;99.90
12268;DHT22;6196;48.398;11.736;2023-04-06T01:39:02;-1.70;99.90
12268;DHT22;6196;48.398;11.736;2023-04-06T01:41:29;-1.80;99.90
12268;DHT22;6196;48.398;11.736;2023-04-06T01:43:56;-1.80;99.90
12268;DHT22;6196;48.398;11.736;2023-04-06T01:46:23;-1.70;99.90
12268;DHT22;6196;48.398;11.736;2023-04-06T01:48:50;-1.70;99.90
12268;DHT22;6196;48.398;11.736;2023-04-06T01:51:17;-1.70;99.90
12268;DHT22;6196;48.398;11.736;2023-04-06T01:53:44;-1.70;99.90
12268;DHT22;6196;48.398;11.736;2023-04-06T01:56:11;-1.70;99.90
12268;DHT22;6196;48.398;11.736;2023-04-06T01:58:37;-1.70;99.90
12268;DHT22;6196;48.398;11.736;2023-04-06T02:01:04;-1.80;99.90
12268;DHT22;6196;48.398;11.736;2023-04-06T02:03:31;-1.90;99.90
12268;DHT22;6196;48.398;11.736;2023-04-06T02:05:58;-1.90;99.90
12268;DHT22;6196;48.398;11.736;2023-04-06T02:08:25;-1.90;99.90
12268;DHT22;6196;48.398;11.736;2023-04-06T02:10:52;-1.90;99.90
12268;DHT22;6196;48.398;11.736;2023-04-06T02:13:19;-1.90;99.90
12268;DHT22;6196;48.398;11.736;2023-04-06T02:15:46;-2.00;99.90
12268;DHT22;6196;48.398;11.736;2023-04-06T02:18:13;-2.00;99.90
12268;DHT22;6196;48.398;11.736;2023-04-06T02:20:39;-2.10;99.90
12268;DHT22;6196;48.398;11.736;2023-04-06T02:23:07;-2.10;99.90
12268;DHT22;6196;48.398;11.736;2023-04-06T02:25:33;-2.10;99.90
12268;DHT22;6196;48.398;11.736;2023-04-06T02:28:01;-2.10;99.90
12268;DHT22;6196;48.398;11.736;2023-04-06T02:30:28;-2.10;99.90
12268;DHT22;6196;48.398;11.736;2023-04-06T02:32:55;-2.10;99.90
12268;DHT22;6196;48.398;11.736;2023-04-06T02:35:22;-2.10;99.90
12268;DHT22;6196;48.398;11.736;2023-04-06T02:37:51;-2.20;99.90
12268;DHT22;6196;48.398;11.736;2023-04-06T02:40:18;-2.20;99.90
12268;DHT22;6196;48.398;11.736;2023-04-06T02:42:45;-2.20;99.90
12268;DHT22;6196;48.398;11.736;2023-04-06T02:45:12;-2.30;99.90
12268;DHT22;6196;48.398;11.736;2023-04-06T02:47:38;-2.30;99.90
12268;DHT22;6196;48.398;11.736;2023-04-06T02:50:05;-2.30;99.90
12268;DHT22;6196;48.398;11.736;2023-04-06T02:52:33;-2.30;99.90
12268;DHT22;6196;48.398;11.736;2023-04-06T02:54:59;-2.30;99.90
12268;DHT22;6196;48.398;11.736;2023-04-06T02:57:26;-2.40;99.90
12268;DHT22;6196;48.398;11.736;2023-04-06T02:59:53;-2.30;99.90
12268;DHT22;6196;48.398;11.736;2023-04-06T03:02:20;-2.30;99.90
12268;DHT22;6196;48.398;11.736;2023-04-06T03:04:47;-2.30;99.90
12268;DHT22;6196;48.398;11.736;2023-04-06T03:07:14;-2.30;99.90
12268;DHT22;6196;48.398;11.736;2023-04-06T03:09:41;-2.40;99.90
12268;DHT22;6196;48.398;11.736;2023-04-06T03:12:08;-2.30;99.90
12268;DHT22;6196;48.398;11.736;2023-04-06T03:14:36;-2.40;99.90
12268;DHT22;6196;48.398;11.736;2023-04-06T03:17:02;-2.40;99.90
12268;DHT22;6196;48.398;11.736;2023-04-06T03:19:29;-2.40;99.90
12268;DHT22;6196;48.398;11.736;2023-04-06T03:21:56;-2.50;99.90
12268;DHT22;6196;48.398;11.736;2023-04-06T03:24:23;-2.50;99.90
12268;DHT22;6196;48.398;11.736;2023-04-06T03:26:50;-2.50;99.90
12268;DHT22;6196;48.398;11.736;2023-04-06T03:29:17;-2.60;99.90
12268;DHT22;6196;48.398;11.736;2023-04-06T03:31:43;-2.60;99.90
12268;DHT22;6196;48.398;11.736;2023-04-06T03:34:10;-2.60;99.90
12268;DHT22;6196;48.398;11.736;2023-04-06T03:36:37;-2.60;99.90
12268;DHT22;6196;48.398;11.736;2023-04-06T03:39:05;-2.60;99.90
12268;DHT22;6196;48.398;11.736;2023-04-06T03:41:32;-2.60;99.90
12268;DHT22;6196;48.398;11.736;2023-04-06T03:43:59;-2.60;99.90
12268;DHT22;6196;48.398;11.736;2023-04-06T03:46:26;-2.60;99.90
12268;DHT22;6196;48.398;11.736;2023-04-06T03:48:53;-2.70;99.90
12268;DHT22;6196;48.398;11.736;2023-04-06T03:51:20;-2.70;99.90
12268;DHT22;6196;48.398;11.736;2023-04-06T03:53:47;-2.60;99.90
12268;DHT22;6196;48.398;11.736;2023-04-06T03:56:14;-2.70;99.90
12268;DHT22;6196;48.398;11.736;2023-04-06T03:58:41;-2.70;99.90
12268;DHT22;6196;48.398;11.736;2023-04-06T04:01:08;-2.70;99.90
12268;DHT22;6196;48.398;11.736;2023-04-06T04:03:34;-2.70;99.90
12268;DHT22;6196;48.398;11.736;2023-04-06T04:06:02;-2.60;99.90
12268;DHT22;6196;48.398;11.736;2023-04-06T04:08:28;-2.60;99.90
12268;DHT22;6196;48.398;11.736;2023-04-06T04:10:55;-2.60;99.90
12268;DHT22;6196;48.398;11.736;2023-04-06T04:13:22;-2.60;99.90
12268;DHT22;6196;48.398;11.736;2023-04-06T04:15:49;-2.60;99.90
12268;DHT22;6196;48.398;11.736;2023-04-06T04:18:16;-2.70;99.90
12268;DHT22;6196;48.398;11.736;2023-04-06T04:20:43;-2.70;99.90
12268;DHT22;6196;48.398;11.736;2023-04-06T04:23:10;-2.60;99.90
12268;DHT22;6196;48.398;11.736;2023-04-06T04:25:37;-2.70;99.90
12268;DHT22;6196;48.398;11.736;2023-04-06T04:28:04;-2.70;99.90
12268;DHT22;6196;48.398;11.736;2023-04-06T04:30:31;-2.70;99.90
12268;DHT22;6196;48.398;11.736;2023-04-06T04:32:58;-2.70;99.90
12268;DHT22;6196;48.398;11.736;2023-04-06T04:35:24;-2.70;99.90
12268;DHT22;6196;48.398;11.736;2023-04-06T04:37:51;-2.80;99.90
12268;DHT22;6196;48.398;11.736;2023-04-06T04:40:18;-2.70;99.90
12268;DHT22;6196;48.398;11.736;2023-04-06T04:42:45;-2.70;99.90
12268;DHT22;6196;48.398;11.736;2023-04-06T04:45:12;-2.70;99.90
12268;DHT22;6196;48.398;11.736;2023-04-06T04:47:40;-2.60;99.90
12268;DHT22;6196;48.398;11.736;2023-04-06T04:50:07;-2.70;99.90
12268;DHT22;6196;48.398;11.736;2023-04-06T04:52:34;-2.70;99.90
12268;DHT22;6196;48.398;11.736;2023-04-06T04:55:01;-2.70;99.90
12268;DHT22;6196;48.398;11.736;2023-04-06T04:57:28;-2.70;99.90
12268;DHT22;6196;48.398;11.736;2023-04-06T04:59:55;-2.70;99.90
12268;DHT22;6196;48.398;11.736;2023-04-06T05:02:23;-2.60;99.90
12268;DHT22;6196;48.398;11.736;2023-04-06T05:04:50;-2.60;99.90
12268;DHT22;6196;48.398;11.736;2023-04-06T05:07:17;-2.50;99.90
12268;DHT22;6196;48.398;11.736;2023-04-06T05:09:45;-2.40;99.90
12268;DHT22;6196;48.398;11.736;2023-04-06T05:12:12;-2.40;99.90
12268;DHT22;6196;48.398;11.736;2023-04-06T05:14:39;-2.30;99.90
12268;DHT22;6196;48.398;11.736;2023-04-06T05:17:06;-2.30;99.90
12268;DHT22;6196;48.398;11.736;2023-04-06T05:19:33;-2.30;99.90
12268;DHT22;6196;48.398;11.736;2023-04-06T05:22:00;-2.20;99.90
12268;DHT22;6196;48.398;11.736;2023-04-06T05:24:26;-2.10;99.90
12268;DHT22;6196;48.398;11.736;2023-04-06T05:26:54;-2.10;99.90
12268;DHT22;6196;48.398;11.736;2023-04-06T05:29:21;-1.90;99.90
12268;DHT22;6196;48.398;11.736;2023-04-06T05:31:48;-1.90;99.90
12268;DHT22;6196;48.398;11.736;2023-04-06T05:34:15;-1.80;99.90
12268;DHT22;6196;48.398;11.736;2023-04-06T05:36:42;-1.70;99.90
12268;DHT22;6196;48.398;11.736;2023-04-06T05:39:09;-1.50;99.90
12268;DHT22;6196;48.398;11.736;2023-04-06T05:41:36;-1.30;99.90
12268;DHT22;6196;48.398;11.736;2023-04-06T05:44:03;-1.20;99.90
12268;DHT22;6196;48.398;11.736;2023-04-06T05:46:31;-1.00;99.90
12268;DHT22;6196;48.398;11.736;2023-04-06T05:48:58;-0.70;99.90
12268;DHT22;6196;48.398;11.736;2023-04-06T05:51:24;-0.60;99.90
12268;DHT22;6196;48.398;11.736;2023-04-06T05:53:53;-0.40;99.90
12268;DHT22;6196;48.398;11.736;2023-04-06T05:56:20;-0.30;99.90
12268;DHT22;6196;48.398;11.736;2023-04-06T05:58:47;-0.20;99.90
12268;DHT22;6196;48.398;11.736;2023-04-06T06:01:15;0.00;99.90
12268;DHT22;6196;48.398;11.736;2023-04-06T06:03:42;0.20;99.90
12268;DHT22;6196;48.398;11.736;2023-04-06T06:06:09;0.50;99.90
12268;DHT22;6196;48.398;11.736;2023-04-06T06:08:35;0.80;99.90
12268;DHT22;6196;48.398;11.736;2023-04-06T06:11:02;1.00;99.90
12268;DHT22;6196;48.398;11.736;2023-04-06T06:13:29;1.30;99.90
12268;DHT22;6196;48.398;11.736;2023-04-06T06:15:56;1.60;99.90
12268;DHT22;6196;48.398;11.736;2023-04-06T06:18:23;1.70;99.90
12268;DHT22;6196;48.398;11.736;2023-04-06T06:20:50;2.00;99.90
12268;DHT22;6196;48.398;11.736;2023-04-06T06:23:17;2.30;99.90
12268;DHT22;6196;48.398;11.736;2023-04-06T06:25:44;2.50;99.90
12268;DHT22;6196;48.398;11.736;2023-04-06T06:28:11;2.80;99.90
12268;DHT22;6196;48.398;11.736;2023-04-06T06:30:38;3.10;99.90
12268;DHT22;6196;48.398;11.736;2023-04-06T06:33:05;3.40;99.90
12268;DHT22;6196;48.398;11.736;2023-04-06T06:35:32;3.60;99.90
12268;DHT22;6196;48.398;11.736;2023-04-06T06:37:59;3.70;99.90
12268;DHT22;6196;48.398;11.736;2023-04-06T06:40:26;3.70;99.90
12268;DHT22;6196;48.398;11.736;2023-04-06T06:42:53;3.90;99.90
12268;DHT22;6196;48.398;11.736;2023-04-06T06:45:20;3.80;99.90
12268;DHT22;6196;48.398;11.736;2023-04-06T06:47:47;3.90;99.90
12268;DHT22;6196;48.398;11.736;2023-04-06T06:50:14;4.10;99.90
12268;DHT22;6196;48.398;11.736;2023-04-06T06:52:41;4.30;99.90
12268;DHT22;6196;48.398;11.736;2023-04-06T06:55:09;4.50;99.90
12268;DHT22;6196;48.398;11.736;2023-04-06T06:57:37;4.70;99.90
12268;DHT22;6196;48.398;11.736;2023-04-06T07:00:06;4.80;99.90
12268;DHT22;6196;48.398;11.736;2023-04-06T07:02:34;4.90;99.90
12268;DHT22;6196;48.398;11.736;2023-04-06T07:05:02;5.20;99.90
12268;DHT22;6196;48.398;11.736;2023-04-06T07:07:42;5.20;99.90
12268;DHT22;6196;48.398;11.736;2023-04-06T07:10:10;5.40;99.90
12268;DHT22;6196;48.398;11.736;2023-04-06T07:12:37;5.40;99.90
12268;DHT22;6196;48.398;11.736;2023-04-06T07:15:04;5.50;99.90
12268;DHT22;6196;48.398;11.736;2023-04-06T07:17:31;5.70;99.90
12268;DHT22;6196;48.398;11.736;2023-04-06T07:19:59;5.90;99.90
12268;DHT22;6196;48.398;11.736;2023-04-06T07:22:25;6.00;99.90
12268;DHT22;6196;48.398;11.736;2023-04-06T07:24:52;6.10;99.90
12268;DHT22;6196;48.398;11.736;2023-04-06T07:27:19;6.30;99.90
12268;DHT22;6196;48.398;11.736;2023-04-06T07:29:46;6.50;99.90
12268;DHT22;6196;48.398;11.736;2023-04-06T07:32:13;6.40;99.90
12268;DHT22;6196;48.398;11.736;2023-04-06T07:34:41;6.50;99.90
12268;DHT22;6196;48.398;11.736;2023-04-06T07:37:08;6.70;99.90
12268;DHT22;6196;48.398;11.736;2023-04-06T07:39:35;6.60;99.90
12268;DHT22;6196;48.398;11.736;2023-04-06T07:42:01;7.00;99.90
12268;DHT22;6196;48.398;11.736;2023-04-06T07:44:28;7.20;99.90
12268;DHT22;6196;48.398;11.736;2023-04-06T07:46:55;7.40;99.90
12268;DHT22;6196;48.398;11.736;2023-04-06T07:49:22;7.40;99.90
12268;DHT22;6196;48.398;11.736;2023-04-06T07:51:49;7.60;99.90
12268;DHT22;6196;48.398;11.736;2023-04-06T07:54:16;7.60;99.90
12268;DHT22;6196;48.398;11.736;2023-04-06T07:56:43;7.90;99.90
12268;DHT22;6196;48.398;11.736;2023-04-06T07:59:10;8.40;99.90
12268;DHT22;6196;48.398;11.736;2023-04-06T08:01:38;8.30;99.90
12268;DHT22;6196;48.398;11.736;2023-04-06T08:04:04;8.70;99.90
12268;DHT22;6196;48.398;11.736;2023-04-06T08:06:32;9.00;99.90
12268;DHT22;6196;48.398;11.736;2023-04-06T08:08:59;9.10;99.90
12268;DHT22;6196;48.398;11.736;2023-04-06T08:11:26;8.20;99.90
12268;DHT22;6196;48.398;11.736;2023-04-06T08:13:54;8.30;99.90
12268;DHT22;6196;48.398;11.736;2023-04-06T08:16:23;8.80;99.90
12268;DHT22;6196;48.398;11.736;2023-04-06T08:18:51;9.40;99.90
12268;DHT22;6196;48.398;11.736;2023-04-06T08:21:18;9.70;99.90
12268;DHT22;6196;48.398;11.736;2023-04-06T08:23:45;9.40;99.90
12268;DHT22;6196;48.398;11.736;2023-04-06T08:26:12;9.60;99.60
12268;DHT22;6196;48.398;11.736;2023-04-06T08:28:39;10.10;98.30
12268;DHT22;6196;48.398;11.736;2023-04-06T08:31:06;10.60;98.00
12268;DHT22;6196;48.398;11.736;2023-04-06T08:33:33;10.20;97.10
12268;DHT22;6196;48.398;11.736;2023-04-06T08:36:13;10.00;95.50
12268;DHT22;6196;48.398;11.736;2023-04-06T08:38:41;10.10;95.70
12268;DHT22;6196;48.398;11.736;2023-04-06T08:41:13;9.80;95.50
12268;DHT22;6196;48.398;11.736;2023-04-06T08:43:47;9.80;95.70
12268;DHT22;6196;48.398;11.736;2023-04-06T08:46:15;10.00;93.30
12268;DHT22;6196;48.398;11.736;2023-04-06T08:48:43;10.60;93.30
12268;DHT22;6196;48.398;11.736;2023-04-06T08:51:10;10.90;91.80
12268;DHT22;6196;48.398;11.736;2023-04-06T08:53:37;11.30;90.60
12268;DHT22;6196;48.398;11.736;2023-04-06T08:56:05;11.50;90.70
12268;DHT22;6196;48.398;11.736;2023-04-06T08:58:35;11.80;90.60
12268;DHT22;6196;48.398;11.736;2023-04-06T09:01:11;11.80;89.40
12268;DHT22;6196;48.398;11.736;2023-04-06T09:03:40;12.00;89.00
12268;DHT22;6196;48.398;11.736;2023-04-06T09:06:08;11.70;85.60
12268;DHT22;6196;48.398;11.736;2023-04-06T09:08:38;11.30;86.50
12268;DHT22;6196;48.398;11.736;2023-04-06T09:11:07;11.60;88.30
12268;DHT22;6196;48.398;11.736;2023-04-06T09:13:48;11.60;85.80
12268;DHT22;6196;48.398;11.736;2023-04-06T09:16:20;11.80;85.70
12268;DHT22;6196;48.398;11.736;2023-04-06T09:18:48;12.10;86.00
12268;DHT22;6196;48.398;11.736;2023-04-06T09:21:19;12.20;82.00
12268;DHT22;6196;48.398;11.736;2023-04-06T09:24:01;12.00;80.60
12268;DHT22;6196;48.398;11.736;2023-04-06T09:26:28;12.00;80.50
12268;DHT22;6196;48.398;11.736;2023-04-06T09:28:58;11.60;82.90
12268;DHT22;6196;48.398;11.736;2023-04-06T09:31:29;11.90;82.30
12268;DHT22;6196;48.398;11.736;2023-04-06T09:33:59;11.90;80.00
12268;DHT22;6196;48.398;11.736;2023-04-06T09:36:34;12.00;81.60
12268;DHT22;6196;48.398;11.736;2023-04-06T09:39:03;12.30;82.40
12268;DHT22;6196;48.398;11.736;2023-04-06T09:41:32;12.10;77.10
12268;DHT22;6196;48.398;11.736;2023-04-06T09:44:04;11.10;79.70
12268;DHT22;6196;48.398;11.736;2023-04-06T09:46:39;11.40;80.00
12268;DHT22;6196;48.398;11.736;2023-04-06T09:49:27;11.30;81.00
12268;DHT22;6196;48.398;11.736;2023-04-06T09:52:00;12.20;81.30
12268;DHT22;6196;48.398;11.736;2023-04-06T09:54:30;12.60;77.90
12268;DHT22;6196;48.398;11.736;2023-04-06T09:57:04;12.80;76.20
12268;DHT22;6196;48.398;11.736;2023-04-06T10:05:45;11.30;72.80
12268;DHT22;6196;48.398;11.736;2023-04-06T10:08:14;10.50;75.80
12268;DHT22;6196;48.398;11.736;2023-04-06T10:10:41;10.90;79.50
12268;DHT22;6196;48.398;11.736;2023-04-06T10:13:10;11.60;80.20
12268;DHT22;6196;48.398;11.736;2023-04-06T10:15:42;12.40;83.60
12268;DHT22;6196;48.398;11.736;2023-04-06T10:18:09;12.50;77.40
12268;DHT22;6196;48.398;11.736;2023-04-06T10:21:00;12.90;74.40
12268;DHT22;6196;48.398;11.736;2023-04-06T10:23:48;13.10;75.20
12268;DHT22;6196;48.398;11.736;2023-04-06T10:26:20;11.40;73.30
12268;DHT22;6196;48.398;11.736;2023-04-06T10:28:48;11.60;76.70
12268;DHT22;6196;48.398;11.736;2023-04-06T10:31:25;12.60;75.90
12268;DHT22;6196;48.398;11.736;2023-04-06T10:33:59;13.50;77.90
12268;DHT22;6196;48.398;11.736;2023-04-06T10:36:31;14.00;75.70
12268;DHT22;6196;48.398;11.736;2023-04-06T10:39:00;14.00;71.80
12268;DHT22;6196;48.398;11.736;2023-04-06T10:41:44;13.90;71.90
12268;DHT22;6196;48.398;11.736;2023-04-06T10:44:20;14.30;71.40
12268;DHT22;6196;48.398;11.736;2023-04-06T10:46:59;14.20;71.20
12268;DHT22;6196;48.398;11.736;2023-04-06T10:49:29;13.20;71.10
12268;DHT22;6196;48.398;11.736;2023-04-06T10:51:56;13.80;70.50
12268;DHT22;6196;48.398;11.736;2023-04-06T10:54:25;13.90;68.60
12268;DHT22;6196;48.398;11.736;2023-04-06T10:56:52;14.40;71.50
12268;DHT22;6196;48.398;11.736;2023-04-06T10:59:20;15.30;72.30
12268;DHT22;6196;48.398;11.736;2023-04-06T11:01:49;15.90;68.50
12268;DHT22;6196;48.398;11.736;2023-04-06T11:04:17;15.00;64.70
12268;DHT22;6196;48.398;11.736;2023-04-06T11:06:48;14.60;70.40
12268;DHT22;6196;48.398;11.736;2023-04-06T11:09:26;15.20;68.70
12268;DHT22;6196;48.398;11.736;2023-04-06T11:11:54;14.90;66.80
12268;DHT22;6196;48.398;11.736;2023-04-06T11:14:22;14.90;65.80
12268;DHT22;6196;48.398;11.736;2023-04-06T11:16:49;15.00;70.30
12268;DHT22;6196;48.398;11.736;2023-04-06T11:19:17;14.80;69.20
12268;DHT22;6196;48.398;11.736;2023-04-06T11:21:45;14.10;66.60
12268;DHT22;6196;48.398;11.736;2023-04-06T11:24:21;14.60;67.40
12268;DHT22;6196;48.398;11.736;2023-04-06T11:26:56;14.70;67.00
12268;DHT22;6196;48.398;11.736;2023-04-06T11:29:30;14.40;66.80
12268;DHT22;6196;48.398;11.736;2023-04-06T11:32:02;14.30;66.40
12268;DHT22;6196;48.398;11.736;2023-04-06T11:34:34;14.50;66.20
12268;DHT22;6196;48.398;11.736;2023-04-06T11:37:08;14.10;65.00
12268;DHT22;6196;48.398;11.736;2023-04-06T11:39:42;14.50;65.70
12268;DHT22;6196;48.398;11.736;2023-04-06T11:42:20;15.10;65.40
12268;DHT22;6196;48.398;11.736;2023-04-06T11:44:50;14.50;67.40
12268;DHT22;6196;48.398;11.736;2023-04-06T11:47:20;14.10;65.90
12268;DHT22;6196;48.398;11.736;2023-04-06T11:49:54;15.10;66.20
12268;DHT22;6196;48.398;11.736;2023-04-06T11:52:24;15.00;63.80
12268;DHT22;6196;48.398;11.736;2023-04-06T11:54:53;14.00;65.20
12268;DHT22;6196;48.398;11.736;2023-04-06T11:57:21;14.70;68.00
12268;DHT22;6196;48.398;11.736;2023-04-06T11:59:52;15.40;66.10
12268;DHT22;6196;48.398;11.736;2023-04-06T12:02:19;15.00;65.40
12268;DHT22;6196;48.398;11.736;2023-04-06T12:04:46;15.30;65.80
12268;DHT22;6196;48.398;11.736;2023-04-06T12:07:13;14.70;64.30
12268;DHT22;6196;48.398;11.736;2023-04-06T12:09:40;14.00;66.40
12268;DHT22;6196;48.398;11.736;2023-04-06T12:12:07;14.40;64.20
12268;DHT22;6196;48.398;11.736;2023-04-06T12:14:34;15.50;64.60
12268;DHT22;6196;48.398;11.736;2023-04-06T12:17:01;16.40;64.50
12268;DHT22;6196;48.398;11.736;2023-04-06T12:19:28;15.90;62.60
12268;DHT22;6196;48.398;11.736;2023-04-06T12:21:57;15.50;62.90
12268;DHT22;6196;48.398;11.736;2023-04-06T12:24:24;14.90;64.20
12268;DHT22;6196;48.398;11.736;2023-04-06T12:26:51;14.20;63.50
12268;DHT22;6196;48.398;11.736;2023-04-06T12:29:28;13.90;64.80
12268;DHT22;6196;48.398;11.736;2023-04-06T12:31:55;14.90;66.90
12268;DHT22;6196;48.398;11.736;2023-04-06T12:34:22;15.90;65.20
12268;DHT22;6196;48.398;11.736;2023-04-06T12:36:49;16.40;63.30
12268;DHT22;6196;48.398;11.736;2023-04-06T12:39:18;16.40;61.80
12268;DHT22;6196;48.398;11.736;2023-04-06T12:41:47;16.70;61.80
12268;DHT22;6196;48.398;11.736;2023-04-06T12:44:14;17.00;60.10
12268;DHT22;6196;48.398;11.736;2023-04-06T12:46:41;17.30;59.80
12268;DHT22;6196;48.398;11.736;2023-04-06T12:49:09;18.50;60.90
12268;DHT22;6196;48.398;11.736;2023-04-06T12:51:36;19.60;60.30
12268;DHT22;6196;48.398;11.736;2023-04-06T12:54:03;20.10;57.20
12268;DHT22;6196;48.398;11.736;2023-04-06T12:56:30;19.20;53.80
12268;DHT22;6196;48.398;11.736;2023-04-06T12:58:57;18.70;55.80
12268;DHT22;6196;48.398;11.736;2023-04-06T13:01:24;19.50;57.60
12268;DHT22;6196;48.398;11.736;2023-04-06T13:03:53;20.70;57.00
12268;DHT22;6196;48.398;11.736;2023-04-06T13:06:20;20.40;55.00
12268;DHT22;6196;48.398;11.736;2023-04-06T13:08:46;21.20;56.50
12268;DHT22;6196;48.398;11.736;2023-04-06T13:11:16;21.20;54.20
12268;DHT22;6196;48.398;11.736;2023-04-06T13:13:43;21.60;53.60
12268;DHT22;6196;48.398;11.736;2023-04-06T13:16:10;22.10;52.00
12268;DHT22;6196;48.398;11.736;2023-04-06T13:18:37;22.60;50.70
12268;DHT22;6196;48.398;11.736;2023-04-06T13:21:06;24.60;51.40
12268;DHT22;6196;48.398;11.736;2023-04-06T13:23:34;25.40;49.10
12268;DHT22;6196;48.398;11.736;2023-04-06T13:26:04;25.70;47.40
12268;DHT22;6196;48.398;11.736;2023-04-06T13:28:32;24.90;44.60
12268;DHT22;6196;48.398;11.736;2023-04-06T13:31:01;24.70;47.00
12268;DHT22;6196;48.398;11.736;2023-04-06T13:33:29;25.40;44.00
12268;DHT22;6196;48.398;11.736;2023-04-06T13:35:57;24.00;44.70
12268;DHT22;6196;48.398;11.736;2023-04-06T13:38:25;25.10;45.50
12268;DHT22;6196;48.398;11.736;2023-04-06T13:40:52;25.70;47.20
12268;DHT22;6196;48.398;11.736;2023-04-06T13:43:19;25.30;45.70
12268;DHT22;6196;48.398;11.736;2023-04-06T13:45:55;23.30;43.80
12268;DHT22;6196;48.398;11.736;2023-04-06T13:48:22;21.90;45.20
12268;DHT22;6196;48.398;11.736;2023-04-06T13:50:49;21.70;46.70
12268;DHT22;6196;48.398;11.736;2023-04-06T13:53:17;20.90;47.50
12268;DHT22;6196;48.398;11.736;2023-04-06T13:55:52;21.80;48.20
12268;DHT22;6196;48.398;11.736;2023-04-06T13:58:20;23.70;45.30
12268;DHT22;6196;48.398;11.736;2023-04-06T14:00:47;23.00;44.30
12268;DHT22;6196;48.398;11.736;2023-04-06T14:03:14;20.70;46.20
12268;DHT22;6196;48.398;11.736;2023-04-06T14:05:41;18.30;50.20
12268;DHT22;6196;48.398;11.736;2023-04-06T14:08:08;16.90;51.90
12268;DHT22;6196;48.398;11.736;2023-04-06T14:10:39;18.10;54.30
12268;DHT22;6196;48.398;11.736;2023-04-06T14:13:06;20.60;52.30
12268;DHT22;6196;48.398;11.736;2023-04-06T14:15:34;23.80;48.60
12268;DHT22;6196;48.398;11.736;2023-04-06T14:18:01;25.00;45.80
12268;DHT22;6196;48.398;11.736;2023-04-06T14:20:31;26.40;46.40
12268;DHT22;6196;48.398;11.736;2023-04-06T14:23:02;28.20;43.60
12268;DHT22;6196;48.398;11.736;2023-04-06T14:25:29;29.30;42.00
12268;DHT22;6196;48.398;11.736;2023-04-06T14:27:58;28.00;39.20
12268;DHT22;6196;48.398;11.736;2023-04-06T14:30:25;27.20;40.20
12268;DHT22;6196;48.398;11.736;2023-04-06T14:32:52;26.40;39.90
12268;DHT22;6196;48.398;11.736;2023-04-06T14:35:19;26.30;39.60
12268;DHT22;6196;48.398;11.736;2023-04-06T14:37:46;25.60;41.00
12268;DHT22;6196;48.398;11.736;2023-04-06T14:40:13;24.90;39.50
12268;DHT22;6196;48.398;11.736;2023-04-06T14:42:40;23.30;40.70
12268;DHT22;6196;48.398;11.736;2023-04-06T14:45:07;23.00;42.40
12268;DHT22;6196;48.398;11.736;2023-04-06T14:47:34;23.30;42.20
12268;DHT22;6196;48.398;11.736;2023-04-06T14:50:01;23.90;43.20
12268;DHT22;6196;48.398;11.736;2023-04-06T14:52:28;24.20;40.20
12268;DHT22;6196;48.398;11.736;2023-04-06T14:54:58;24.80;42.60
12268;DHT22;6196;48.398;11.736;2023-04-06T14:57:25;25.20;40.00
12268;DHT22;6196;48.398;11.736;2023-04-06T14:59:53;23.60;40.60
12268;DHT22;6196;48.398;11.736;2023-04-06T15:02:20;23.70;42.70
12268;DHT22;6196;48.398;11.736;2023-04-06T15:04:47;24.60;40.50
12268;DHT22;6196;48.398;11.736;2023-04-06T15:07:14;25.80;40.60
12268;DHT22;6196;48.398;11.736;2023-04-06T15:09:41;26.00;40.60
12268;DHT22;6196;48.398;11.736;2023-04-06T15:12:08;24.30;41.50
12268;DHT22;6196;48.398;11.736;2023-04-06T15:14:35;23.20;40.80
12268;DHT22;6196;48.398;11.736;2023-04-06T15:17:02;23.20;41.70
12268;DHT22;6196;48.398;11.736;2023-04-06T15:19:28;22.80;41.90
12268;DHT22;6196;48.398;11.736;2023-04-06T15:21:55;21.80;42.60
12268;DHT22;6196;48.398;11.736;2023-04-06T15:24:25;20.80;42.60
12268;DHT22;6196;48.398;11.736;2023-04-06T15:26:51;21.10;43.40
12268;DHT22;6196;48.398;11.736;2023-04-06T15:29:18;21.90;41.40
12268;DHT22;6196;48.398;11.736;2023-04-06T15:31:45;22.20;40.90
12268;DHT22;6196;48.398;11.736;2023-04-06T15:34:12;22.20;42.50
12268;DHT22;6196;48.398;11.736;2023-04-06T15:36:39;21.70;41.70
12268;DHT22;6196;48.398;11.736;2023-04-06T15:39:06;20.90;40.70
12268;DHT22;6196;48.398;11.736;2023-04-06T15:41:35;20.40;43.00
12268;DHT22;6196;48.398;11.736;2023-04-06T15:44:02;19.30;43.90